sensor_id;sensor_type;location;lat;lon;timestamp;pressure;altitude;pressure_sealevel;temperature;humidity
26657;BME280;14279;50.010;8.260;2023-02-17T00:01:00;101215.28;;;7.19;79.24
26657;BME280;14279;50.010;8.260;2023-02-17T00:03:26;101212.66;;;7.20;78.99
26657;BME280;14279;50.010;8.260;2023-02-17T00:05:52;101209.38;;;7.11;79.72
26657;BME280;14279;50.010;8.260;2023-02-17T00:08:17;101207.44;;;7.22;80.00
26657;BME280;14279;50.010;8.260;2023-02-17T00:10:42;101206.81;;;7.09;80.65
26657;BME280;14279;50.010;8.260;2023-02-17T00:13:08;101207.75;;;7.05;81.18
26657;BME280;14279;50.010;8.260;2023-02-17T00:15:33;101212.09;;;7.03;81.20
26657;BME280;14279;50.010;8.260;2023-02-17T00:17:58;101209.50;;;7.03;80.62
26657;BME280;14279;50.010;8.260;2023-02-17T00:20:24;101208.63;;;7.04;81.50
26657;BME280;14279;50.010;8.260;2023-02-17T00:22:49;101203.47;;;7.04;81.42
26657;BME280;14279;50.010;8.260;2023-02-17T00:25:14;101211.38;;;6.96;81.54
26657;BME280;14279;50.010;8.260;2023-02-17T00:27:39;101208.69;;;6.99;81.48
26657;BME280;14279;50.010;8.260;2023-02-17T00:30:05;101209.41;;;7.07;81.81
26657;BME280;14279;50.010;8.260;2023-02-17T00:32:30;101207.81;;;7.02;80.88
26657;BME280;14279;50.010;8.260;2023-02-17T00:34:56;101205.31;;;6.96;81.21
26657;BME280;14279;50.010;8.260;2023-02-17T00:37:23;101191.59;;;6.92;80.97
26657;BME280;14279;50.010;8.260;2023-02-17T00:39:48;101201.03;;;6.95;81.06
26657;BME280;14279;50.010;8.260;2023-02-17T00:42:13;101182.88;;;6.96;81.13
26657;BME280;14279;50.010;8.260;2023-02-17T00:44:39;101189.59;;;7.08;81.23
26657;BME280;14279;50.010;8.260;2023-02-17T00:47:04;101193.75;;;7.15;80.48
26657;BME280;14279;50.010;8.260;2023-02-17T00:49:29;101198.91;;;7.17;80.88
26657;BME280;14279;50.010;8.260;2023-02-17T00:51:58;101198.75;;;7.25;80.05
26657;BME280;14279;50.010;8.260;2023-02-17T00:54:24;101202.13;;;7.30;79.99
26657;BME280;14279;50.010;8.260;2023-02-17T00:56:50;101202.03;;;7.34;79.93
26657;BME280;14279;50.010;8.260;2023-02-17T00:59:15;101199.47;;;7.33;79.80
26657;BME280;14279;50.010;8.260;2023-02-17T01:01:40;101204.34;;;7.48;79.21
26657;BME280;14279;50.010;8.260;2023-02-17T01:04:05;101219.22;;;7.37;79.40
26657;BME280;14279;50.010;8.260;2023-02-17T01:06:34;101215.47;;;7.08;80.89
26657;BME280;14279;50.010;8.260;2023-02-17T01:09:01;101214.41;;;7.18;80.96
26657;BME280;14279;50.010;8.260;2023-02-17T01:11:31;101212.59;;;7.24;80.93
26657;BME280;14279;50.010;8.260;2023-02-17T01:13:56;101221.28;;;7.21;81.43
26657;BME280;14279;50.010;8.260;2023-02-17T01:16:30;101228.75;;;7.36;80.37
26657;BME280;14279;50.010;8.260;2023-02-17T01:19:00;101221.13;;;7.29;80.82
26657;BME280;14279;50.010;8.260;2023-02-17T01:21:27;101211.34;;;7.43;80.83
26657;BME280;14279;50.010;8.260;2023-02-17T01:23:55;101198.59;;;7.32;80.51
26657;BME280;14279;50.010;8.260;2023-02-17T01:26:23;101194.34;;;7.30;79.97
26657;BME280;14279;50.010;8.260;2023-02-17T01:28:49;101190.00;;;7.30;80.79
26657;BME280;14279;50.010;8.260;2023-02-17T01:31:15;101188.97;;;7.39;80.28
26657;BME280;14279;50.010;8.260;2023-02-17T01:33:41;101184.69;;;7.38;80.68
26657;BME280;14279;50.010;8.260;2023-02-17T01:36:08;101179.38;;;7.44;80.02
26657;BME280;14279;50.010;8.260;2023-02-17T01:38:35;101177.47;;;7.54;79.71
26657;BME280;14279;50.010;8.260;2023-02-17T01:41:01;101178.31;;;7.55;79.56
26657;BME280;14279;50.010;8.260;2023-02-17T01:43:26;101174.03;;;7.54;79.85
26657;BME280;14279;50.010;8.260;2023-02-17T01:45:57;101172.16;;;7.59;79.67
26657;BME280;14279;50.010;8.260;2023-02-17T01:48:43;101177.28;;;7.62;79.50
26657;BME280;14279;50.010;8.260;2023-02-17T01:51:18;101171.22;;;7.63;79.50
26657;BME280;14279;50.010;8.260;2023-02-17T01:54:01;101164.22;;;7.68;78.96
26657;BME280;14279;50.010;8.260;2023-02-17T01:56:29;101159.03;;;7.70;78.55
26657;BME280;14279;50.010;8.260;2023-02-17T01:59:07;101154.41;;;7.82;78.56
26657;BME280;14279;50.010;8.260;2023-02-17T02:01:34;101145.09;;;7.74;78.56
26657;BME280;14279;50.010;8.260;2023-02-17T02:04:02;101141.66;;;7.72;78.95
26657;BME280;14279;50.010;8.260;2023-02-17T02:06:29;101133.75;;;7.79;78.82
26657;BME280;14279;50.010;8.260;2023-02-17T02:09:02;101129.38;;;7.81;78.86
26657;BME280;14279;50.010;8.260;2023-02-17T02:11:28;101124.94;;;7.87;78.42
26657;BME280;14279;50.010;8.260;2023-02-17T02:13:53;101126.75;;;7.83;78.06
26657;BME280;14279;50.010;8.260;2023-02-17T02:16:24;101122.38;;;7.85;78.27
26657;BME280;14279;50.010;8.260;2023-02-17T02:21:39;101123.91;;;7.94;78.47
26657;BME280;14279;50.010;8.260;2023-02-17T02:24:18;101119.50;;;7.97;78.09
26657;BME280;14279;50.010;8.260;2023-02-17T02:27:06;101116.91;;;7.97;78.14
26657;BME280;14279;50.010;8.260;2023-02-17T02:35:35;101102.91;;;8.06;78.06
26657;BME280;14279;50.010;8.260;2023-02-17T02:38:10;101095.31;;;7.97;77.89
26657;BME280;14279;50.010;8.260;2023-02-17T02:40:42;101090.03;;;8.02;77.91
26657;BME280;14279;50.010;8.260;2023-02-17T02:43:09;101092.69;;;7.98;78.18
26657;BME280;14279;50.010;8.260;2023-02-17T02:45:34;101091.72;;;8.03;78.29
26657;BME280;14279;50.010;8.260;2023-02-17T02:47:59;101075.22;;;8.07;78.25
26657;BME280;14279;50.010;8.260;2023-02-17T02:50:35;101079.38;;;8.12;77.72
26657;BME280;14279;50.010;8.260;2023-02-17T02:54:23;101086.28;;;8.13;77.37
26657;BME280;14279;50.010;8.260;2023-02-17T02:56:39;101086.41;;;8.09;78.08
26657;BME280;14279;50.010;8.260;2023-02-17T03:04:34;101085.78;;;7.99;79.42
26657;BME280;14279;50.010;8.260;2023-02-17T03:07:05;101083.94;;;8.04;79.46
26657;BME280;14279;50.010;8.260;2023-02-17T03:09:33;101079.38;;;8.12;79.53
26657;BME280;14279;50.010;8.260;2023-02-17T03:11:59;101084.63;;;8.11;79.36
26657;BME280;14279;50.010;8.260;2023-02-17T03:14:25;101076.53;;;8.23;79.26
26657;BME280;14279;50.010;8.260;2023-02-17T03:16:51;101084.56;;;8.12;80.02
26657;BME280;14279;50.010;8.260;2023-02-17T03:19:18;101080.31;;;8.10;78.81
26657;BME280;14279;50.010;8.260;2023-02-17T03:24:13;101085.69;;;7.64;81.03
26657;BME280;14279;50.010;8.260;2023-02-17T03:26:38;101081.97;;;7.76;80.75
26657;BME280;14279;50.010;8.260;2023-02-17T03:29:04;101076.97;;;8.06;79.93
26657;BME280;14279;50.010;8.260;2023-02-17T03:31:29;101074.00;;;8.20;79.95
26657;BME280;14279;50.010;8.260;2023-02-17T03:33:54;101070.53;;;8.21;78.93
26657;BME280;14279;50.010;8.260;2023-02-17T03:36:20;101072.75;;;8.37;79.27
26657;BME280;14279;50.010;8.260;2023-02-17T03:38:45;101068.16;;;8.48;80.66
26657;BME280;14279;50.010;8.260;2023-02-17T03:41:10;101058.34;;;8.60;80.47
26657;BME280;14279;50.010;8.260;2023-02-17T03:43:36;101062.75;;;8.56;80.38
26657;BME280;14279;50.010;8.260;2023-02-17T03:46:01;101064.47;;;8.57;79.51
26657;BME280;14279;50.010;8.260;2023-02-17T03:48:27;101063.03;;;8.78;82.16
26657;BME280;14279;50.010;8.260;2023-02-17T03:50:52;101058.31;;;8.93;82.98
26657;BME280;14279;50.010;8.260;2023-02-17T03:53:17;101060.41;;;9.11;84.62
26657;BME280;14279;50.010;8.260;2023-02-17T03:55:42;101063.13;;;9.37;84.53
26657;BME280;14279;50.010;8.260;2023-02-17T03:58:08;101056.44;;;9.58;83.91
26657;BME280;14279;50.010;8.260;2023-02-17T04:00:33;101063.09;;;9.67;84.99
26657;BME280;14279;50.010;8.260;2023-02-17T04:02:58;101066.31;;;9.75;83.05
26657;BME280;14279;50.010;8.260;2023-02-17T04:05:24;101065.38;;;9.76;83.24
26657;BME280;14279;50.010;8.260;2023-02-17T04:07:49;101068.09;;;9.73;84.06
26657;BME280;14279;50.010;8.260;2023-02-17T04:10:15;101066.88;;;9.85;83.58
26657;BME280;14279;50.010;8.260;2023-02-17T04:12:40;101069.41;;;9.86;84.45
26657;BME280;14279;50.010;8.260;2023-02-17T04:15:06;101064.03;;;9.91;84.48
26657;BME280;14279;50.010;8.260;2023-02-17T04:17:31;101060.50;;;9.93;84.57
26657;BME280;14279;50.010;8.260;2023-02-17T04:19:57;101052.72;;;9.93;85.02
26657;BME280;14279;50.010;8.260;2023-02-17T04:22:22;101055.41;;;9.90;85.46
26657;BME280;14279;50.010;8.260;2023-02-17T04:24:47;101059.53;;;9.98;85.53
26657;BME280;14279;50.010;8.260;2023-02-17T04:27:13;101056.06;;;9.97;85.66
26657;BME280;14279;50.010;8.260;2023-02-17T04:29:38;101060.00;;;10.09;85.32
26657;BME280;14279;50.010;8.260;2023-02-17T04:32:03;101057.25;;;10.14;85.00
26657;BME280;14279;50.010;8.260;2023-02-17T04:34:28;101054.19;;;10.01;86.18
26657;BME280;14279;50.010;8.260;2023-02-17T04:36:54;101053.00;;;10.11;85.69
26657;BME280;14279;50.010;8.260;2023-02-17T04:39:19;101061.53;;;10.15;85.77
26657;BME280;14279;50.010;8.260;2023-02-17T04:41:45;101062.69;;;10.06;86.83
26657;BME280;14279;50.010;8.260;2023-02-17T04:44:10;101073.34;;;10.25;85.94
26657;BME280;14279;50.010;8.260;2023-02-17T04:46:35;101068.88;;;10.03;86.67
26657;BME280;14279;50.010;8.260;2023-02-17T04:49:00;101067.06;;;10.05;87.94
26657;BME280;14279;50.010;8.260;2023-02-17T04:51:26;101065.84;;;10.16;87.36
26657;BME280;14279;50.010;8.260;2023-02-17T04:53:51;101061.59;;;10.13;87.58
26657;BME280;14279;50.010;8.260;2023-02-17T04:56:16;101058.84;;;10.18;87.75
26657;BME280;14279;50.010;8.260;2023-02-17T04:58:42;101065.09;;;10.12;87.94
26657;BME280;14279;50.010;8.260;2023-02-17T05:01:07;101062.66;;;10.07;89.16
26657;BME280;14279;50.010;8.260;2023-02-17T05:03:32;101058.91;;;10.16;88.45
26657;BME280;14279;50.010;8.260;2023-02-17T05:05:58;101062.75;;;10.31;88.10
26657;BME280;14279;50.010;8.260;2023-02-17T05:08:23;101055.25;;;10.22;88.44
26657;BME280;14279;50.010;8.260;2023-02-17T05:10:52;101061.53;;;10.15;88.68
26657;BME280;14279;50.010;8.260;2023-02-17T05:13:17;101061.78;;;10.34;88.04
26657;BME280;14279;50.010;8.260;2023-02-17T05:15:43;101056.84;;;10.26;88.17
26657;BME280;14279;50.010;8.260;2023-02-17T05:18:09;101049.06;;;10.25;88.59
26657;BME280;14279;50.010;8.260;2023-02-17T05:20:34;101050.69;;;10.29;88.46
26657;BME280;14279;50.010;8.260;2023-02-17T05:23:00;101065.72;;;10.20;88.95
26657;BME280;14279;50.010;8.260;2023-02-17T05:25:25;101060.38;;;10.23;88.49
26657;BME280;14279;50.010;8.260;2023-02-17T05:27:50;101060.19;;;10.30;88.26
26657;BME280;14279;50.010;8.260;2023-02-17T05:30:16;101050.78;;;10.26;88.70
26657;BME280;14279;50.010;8.260;2023-02-17T05:32:41;101057.78;;;10.23;88.79
26657;BME280;14279;50.010;8.260;2023-02-17T05:35:06;101063.56;;;10.33;88.21
26657;BME280;14279;50.010;8.260;2023-02-17T05:37:32;101059.97;;;10.36;88.11
26657;BME280;14279;50.010;8.260;2023-02-17T05:39:57;101065.56;;;10.25;88.43
26657;BME280;14279;50.010;8.260;2023-02-17T05:42:22;101073.72;;;10.41;87.94
26657;BME280;14279;50.010;8.260;2023-02-17T05:44:47;101073.06;;;10.34;88.61
26657;BME280;14279;50.010;8.260;2023-02-17T05:47:13;101068.88;;;10.56;87.57
26657;BME280;14279;50.010;8.260;2023-02-17T05:49:38;101068.19;;;10.50;87.65
26657;BME280;14279;50.010;8.260;2023-02-17T05:52:03;101067.63;;;10.42;88.21
26657;BME280;14279;50.010;8.260;2023-02-17T05:54:29;101065.66;;;10.49;87.72
26657;BME280;14279;50.010;8.260;2023-02-17T05:56:54;101068.53;;;10.41;88.73
26657;BME280;14279;50.010;8.260;2023-02-17T05:59:19;101066.44;;;10.51;88.44
26657;BME280;14279;50.010;8.260;2023-02-17T06:01:44;101071.03;;;10.44;88.68
26657;BME280;14279;50.010;8.260;2023-02-17T06:04:10;101071.50;;;10.56;88.43
26657;BME280;14279;50.010;8.260;2023-02-17T06:06:35;101072.38;;;10.55;88.12
26657;BME280;14279;50.010;8.260;2023-02-17T06:09:00;101069.78;;;10.55;88.66
26657;BME280;14279;50.010;8.260;2023-02-17T06:11:25;101062.06;;;10.51;89.00
26657;BME280;14279;50.010;8.260;2023-02-17T06:13:51;101064.59;;;10.55;88.67
26657;BME280;14279;50.010;8.260;2023-02-17T06:16:16;101055.44;;;10.43;89.33
26657;BME280;14279;50.010;8.260;2023-02-17T06:18:41;101054.97;;;10.57;88.68
26657;BME280;14279;50.010;8.260;2023-02-17T06:21:06;101057.53;;;10.58;88.82
26657;BME280;14279;50.010;8.260;2023-02-17T06:23:32;101065.75;;;10.46;89.29
26657;BME280;14279;50.010;8.260;2023-02-17T06:25:57;101058.75;;;10.48;89.59
26657;BME280;14279;50.010;8.260;2023-02-17T06:28:22;101071.13;;;10.41;89.54
26657;BME280;14279;50.010;8.260;2023-02-17T06:30:47;101065.34;;;10.58;89.00
26657;BME280;14279;50.010;8.260;2023-02-17T06:33:13;101074.78;;;10.61;89.27
26657;BME280;14279;50.010;8.260;2023-02-17T06:35:38;101059.78;;;10.67;88.82
26657;BME280;14279;50.010;8.260;2023-02-17T06:38:03;101055.84;;;10.57;88.97
26657;BME280;14279;50.010;8.260;2023-02-17T06:40:29;101062.69;;;10.60;89.15
26657;BME280;14279;50.010;8.260;2023-02-17T06:42:54;101071.81;;;10.72;88.17
26657;BME280;14279;50.010;8.260;2023-02-17T06:45:19;101066.50;;;10.75;88.43
26657;BME280;14279;50.010;8.260;2023-02-17T06:47:44;101079.06;;;10.87;87.46
26657;BME280;14279;50.010;8.260;2023-02-17T06:50:10;101071.97;;;10.67;88.07
26657;BME280;14279;50.010;8.260;2023-02-17T06:52:35;101070.81;;;10.76;87.65
26657;BME280;14279;50.010;8.260;2023-02-17T06:55:01;101072.31;;;10.81;87.58
26657;BME280;14279;50.010;8.260;2023-02-17T06:57:26;101084.66;;;10.76;87.60
26657;BME280;14279;50.010;8.260;2023-02-17T06:59:51;101081.41;;;10.95;86.44
26657;BME280;14279;50.010;8.260;2023-02-17T07:02:17;101093.66;;;10.93;86.21
26657;BME280;14279;50.010;8.260;2023-02-17T07:04:42;101099.50;;;10.98;86.13
26657;BME280;14279;50.010;8.260;2023-02-17T07:07:09;101095.34;;;10.94;85.96
26657;BME280;14279;50.010;8.260;2023-02-17T07:09:35;101091.69;;;10.98;85.56
26657;BME280;14279;50.010;8.260;2023-02-17T07:12:00;101091.59;;;11.01;85.25
26657;BME280;14279;50.010;8.260;2023-02-17T07:14:26;101086.38;;;11.01;84.97
26657;BME280;14279;50.010;8.260;2023-02-17T07:16:51;101087.06;;;11.06;84.80
26657;BME280;14279;50.010;8.260;2023-02-17T07:19:17;101096.09;;;11.21;83.77
26657;BME280;14279;50.010;8.260;2023-02-17T07:21:43;101084.28;;;11.11;83.65
26657;BME280;14279;50.010;8.260;2023-02-17T07:24:08;101083.88;;;11.22;83.52
26657;BME280;14279;50.010;8.260;2023-02-17T07:26:35;101066.28;;;11.28;83.08
26657;BME280;14279;50.010;8.260;2023-02-17T07:29:01;101058.59;;;11.25;82.61
26657;BME280;14279;50.010;8.260;2023-02-17T07:31:27;101061.59;;;11.15;83.17
26657;BME280;14279;50.010;8.260;2023-02-17T07:33:52;101049.78;;;11.28;82.53
26657;BME280;14279;50.010;8.260;2023-02-17T07:36:17;101058.00;;;11.17;82.67
26657;BME280;14279;50.010;8.260;2023-02-17T07:38:43;101050.56;;;11.30;81.84
26657;BME280;14279;50.010;8.260;2023-02-17T07:41:27;101062.50;;;11.36;81.94
26657;BME280;14279;50.010;8.260;2023-02-17T07:43:53;101078.50;;;11.50;81.13
26657;BME280;14279;50.010;8.260;2023-02-17T07:46:20;101068.09;;;11.49;81.38
26657;BME280;14279;50.010;8.260;2023-02-17T07:48:45;101073.75;;;11.38;80.95
26657;BME280;14279;50.010;8.260;2023-02-17T07:51:16;101083.53;;;11.55;80.40
26657;BME280;14279;50.010;8.260;2023-02-17T07:53:42;101089.31;;;11.63;80.35
26657;BME280;14279;50.010;8.260;2023-02-17T07:56:10;101076.97;;;11.67;80.04
26657;BME280;14279;50.010;8.260;2023-02-17T07:58:37;101081.78;;;11.55;80.14
26657;BME280;14279;50.010;8.260;2023-02-17T08:01:15;101081.38;;;11.66;79.31
26657;BME280;14279;50.010;8.260;2023-02-17T08:03:41;101078.78;;;11.65;79.61
26657;BME280;14279;50.010;8.260;2023-02-17T08:06:19;101075.72;;;11.77;79.16
26657;BME280;14279;50.010;8.260;2023-02-17T08:08:45;101073.22;;;11.74;79.38
26657;BME280;14279;50.010;8.260;2023-02-17T08:11:29;101068.50;;;11.84;78.74
26657;BME280;14279;50.010;8.260;2023-02-17T08:14:14;101067.03;;;11.77;78.75
26657;BME280;14279;50.010;8.260;2023-02-17T08:16:40;101060.19;;;11.74;78.60
26657;BME280;14279;50.010;8.260;2023-02-17T08:19:05;101065.22;;;11.79;78.85
26657;BME280;14279;50.010;8.260;2023-02-17T08:21:31;101063.31;;;11.82;78.88
26657;BME280;14279;50.010;8.260;2023-02-17T08:23:57;101079.72;;;11.86;78.67
26657;BME280;14279;50.010;8.260;2023-02-17T08:26:22;101076.91;;;11.91;78.26
26657;BME280;14279;50.010;8.260;2023-02-17T08:28:48;101093.28;;;11.94;78.76
26657;BME280;14279;50.010;8.260;2023-02-17T08:31:18;101091.25;;;12.02;78.21
26657;BME280;14279;50.010;8.260;2023-02-17T08:33:43;101077.88;;;12.10;78.99
26657;BME280;14279;50.010;8.260;2023-02-17T08:36:09;101077.63;;;11.94;80.29
26657;BME280;14279;50.010;8.260;2023-02-17T08:38:34;101072.00;;;11.83;82.22
26657;BME280;14279;50.010;8.260;2023-02-17T08:41:00;101083.41;;;11.58;83.64
26657;BME280;14279;50.010;8.260;2023-02-17T08:43:25;101093.13;;;11.54;84.44
26657;BME280;14279;50.010;8.260;2023-02-17T08:45:50;101077.41;;;11.56;84.73
26657;BME280;14279;50.010;8.260;2023-02-17T08:48:15;101080.50;;;11.66;84.25
26657;BME280;14279;50.010;8.260;2023-02-17T08:50:42;101094.44;;;11.65;84.27
26657;BME280;14279;50.010;8.260;2023-02-17T08:53:07;101106.88;;;11.58;84.72
26657;BME280;14279;50.010;8.260;2023-02-17T08:55:34;101094.03;;;11.53;85.54
26657;BME280;14279;50.010;8.260;2023-02-17T08:57:59;101088.56;;;11.60;84.96
26657;BME280;14279;50.010;8.260;2023-02-17T09:00:25;101098.16;;;11.59;85.44
26657;BME280;14279;50.010;8.260;2023-02-17T09:02:50;101086.81;;;11.60;85.62
26657;BME280;14279;50.010;8.260;2023-02-17T09:05:15;101087.91;;;11.54;86.36
26657;BME280;14279;50.010;8.260;2023-02-17T09:07:40;101088.28;;;11.67;86.62
26657;BME280;14279;50.010;8.260;2023-02-17T09:10:09;101072.25;;;11.54;86.99
26657;BME280;14279;50.010;8.260;2023-02-17T09:12:35;101076.31;;;11.39;87.78
26657;BME280;14279;50.010;8.260;2023-02-17T09:15:00;101073.63;;;11.41;88.77
26657;BME280;14279;50.010;8.260;2023-02-17T09:17:26;101077.25;;;11.37;88.89
26657;BME280;14279;50.010;8.260;2023-02-17T09:19:51;101086.13;;;11.55;88.28
26657;BME280;14279;50.010;8.260;2023-02-17T09:22:16;101077.41;;;11.56;88.55
26657;BME280;14279;50.010;8.260;2023-02-17T09:24:44;101088.50;;;11.61;88.35
26657;BME280;14279;50.010;8.260;2023-02-17T09:27:11;101091.53;;;11.72;88.02
26657;BME280;14279;50.010;8.260;2023-02-17T09:29:38;101092.03;;;11.60;88.28
26657;BME280;14279;50.010;8.260;2023-02-17T09:32:07;101092.22;;;11.55;87.37
26657;BME280;14279;50.010;8.260;2023-02-17T09:34:37;101108.28;;;11.67;86.93
26657;BME280;14279;50.010;8.260;2023-02-17T09:37:04;101096.63;;;11.76;86.62
26657;BME280;14279;50.010;8.260;2023-02-17T09:39:34;101089.94;;;11.68;85.86
26657;BME280;14279;50.010;8.260;2023-02-17T09:41:59;101095.50;;;11.83;84.83
26657;BME280;14279;50.010;8.260;2023-02-17T09:44:26;101094.53;;;12.08;83.84
26657;BME280;14279;50.010;8.260;2023-02-17T09:47:03;101088.44;;;12.07;83.40
26657;BME280;14279;50.010;8.260;2023-02-17T09:49:36;101086.28;;;12.39;81.92
26657;BME280;14279;50.010;8.260;2023-02-17T09:54:48;101091.50;;;12.39;82.15
26657;BME280;14279;50.010;8.260;2023-02-17T09:57:20;101102.94;;;12.37;82.11
26657;BME280;14279;50.010;8.260;2023-02-17T09:59:52;101090.84;;;12.34;81.45
26657;BME280;14279;50.010;8.260;2023-02-17T10:02:51;101088.44;;;12.29;81.86
26657;BME280;14279;50.010;8.260;2023-02-17T10:05:21;101093.91;;;12.44;81.59
26657;BME280;14279;50.010;8.260;2023-02-17T10:07:59;101091.03;;;12.50;80.80
26657;BME280;14279;50.010;8.260;2023-02-17T10:10:58;101091.03;;;12.71;80.19
26657;BME280;14279;50.010;8.260;2023-02-17T10:13:23;101095.28;;;12.73;80.02
26657;BME280;14279;50.010;8.260;2023-02-17T10:15:52;101073.53;;;12.73;79.36
26657;BME280;14279;50.010;8.260;2023-02-17T10:18:25;101100.47;;;12.94;79.17
26657;BME280;14279;50.010;8.260;2023-02-17T10:21:00;101101.75;;;13.04;79.02
26657;BME280;14279;50.010;8.260;2023-02-17T10:23:29;101113.59;;;12.92;78.94
26657;BME280;14279;50.010;8.260;2023-02-17T10:34:01;101119.09;;;13.07;78.77
26657;BME280;14279;50.010;8.260;2023-02-17T10:36:43;101120.41;;;12.76;79.13
26657;BME280;14279;50.010;8.260;2023-02-17T10:42:02;101116.38;;;13.08;77.99
26657;BME280;14279;50.010;8.260;2023-02-17T10:44:30;101109.75;;;13.20;77.80
26657;BME280;14279;50.010;8.260;2023-02-17T10:46:58;101124.47;;;13.23;77.99
26657;BME280;14279;50.010;8.260;2023-02-17T10:49:41;101116.41;;;13.28;77.86
26657;BME280;14279;50.010;8.260;2023-02-17T10:52:15;101128.09;;;13.40;77.80
26657;BME280;14279;50.010;8.260;2023-02-17T10:54:55;101131.31;;;13.26;78.01
26657;BME280;14279;50.010;8.260;2023-02-17T10:57:26;101125.59;;;13.36;77.51
26657;BME280;14279;50.010;8.260;2023-02-17T10:59:54;101121.66;;;13.28;77.82
26657;BME280;14279;50.010;8.260;2023-02-17T11:05:02;101132.41;;;13.01;79.33
26657;BME280;14279;50.010;8.260;2023-02-17T11:07:40;101130.91;;;13.35;78.38
26657;BME280;14279;50.010;8.260;2023-02-17T11:10:36;101123.44;;;13.46;78.09
26657;BME280;14279;50.010;8.260;2023-02-17T11:13:27;101114.53;;;13.70;76.97
26657;BME280;14279;50.010;8.260;2023-02-17T11:15:54;101088.84;;;13.40;78.13
26657;BME280;14279;50.010;8.260;2023-02-17T11:18:21;101107.25;;;13.57;77.80
26657;BME280;14279;50.010;8.260;2023-02-17T11:20:59;101098.66;;;13.73;77.23
26657;BME280;14279;50.010;8.260;2023-02-17T11:23:25;101104.53;;;13.78;77.11
26657;BME280;14279;50.010;8.260;2023-02-17T11:26:00;101090.34;;;13.64;76.99
26657;BME280;14279;50.010;8.260;2023-02-17T11:28:25;101078.97;;;13.65;77.37
26657;BME280;14279;50.010;8.260;2023-02-17T11:30:57;101093.84;;;14.19;75.74
26657;BME280;14279;50.010;8.260;2023-02-17T11:33:32;101083.44;;;13.81;76.77
26657;BME280;14279;50.010;8.260;2023-02-17T11:35:58;101105.78;;;13.88;76.51
26657;BME280;14279;50.010;8.260;2023-02-17T11:38:26;101079.91;;;13.45;77.87
26657;BME280;14279;50.010;8.260;2023-02-17T11:41:01;101077.63;;;13.93;76.33
26657;BME280;14279;50.010;8.260;2023-02-17T11:43:28;101069.97;;;13.71;77.21
26657;BME280;14279;50.010;8.260;2023-02-17T11:48:54;101071.44;;;13.77;76.78
26657;BME280;14279;50.010;8.260;2023-02-17T11:51:54;101072.94;;;13.82;76.57
26657;BME280;14279;50.010;8.260;2023-02-17T11:54:41;101062.91;;;13.91;76.18
26657;BME280;14279;50.010;8.260;2023-02-17T11:57:19;101060.47;;;14.05;75.73
26657;BME280;14279;50.010;8.260;2023-02-17T11:59:53;101058.69;;;13.88;76.23
26657;BME280;14279;50.010;8.260;2023-02-17T12:02:47;101085.53;;;13.92;76.48
26657;BME280;14279;50.010;8.260;2023-02-17T12:05:41;101083.28;;;14.21;75.25
26657;BME280;14279;50.010;8.260;2023-02-17T12:11:05;101083.28;;;14.03;75.71
26657;BME280;14279;50.010;8.260;2023-02-17T12:21:55;101081.97;;;14.30;74.77
26657;BME280;14279;50.010;8.260;2023-02-17T12:30:34;101070.75;;;13.91;76.06
26657;BME280;14279;50.010;8.260;2023-02-17T12:35:54;101065.53;;;13.91;76.42
26657;BME280;14279;50.010;8.260;2023-02-17T12:38:34;101059.75;;;13.84;76.82
26657;BME280;14279;50.010;8.260;2023-02-17T12:46:06;101039.19;;;13.76;77.18
26657;BME280;14279;50.010;8.260;2023-02-17T12:48:44;101041.66;;;13.79;76.93
26657;BME280;14279;50.010;8.260;2023-02-17T12:51:22;101039.59;;;13.86;77.01
26657;BME280;14279;50.010;8.260;2023-02-17T12:53:51;101025.97;;;13.79;77.07
26657;BME280;14279;50.010;8.260;2023-02-17T12:58:51;101040.75;;;13.98;76.87
26657;BME280;14279;50.010;8.260;2023-02-17T13:01:20;101041.81;;;14.11;76.28
26657;BME280;14279;50.010;8.260;2023-02-17T13:03:46;101041.59;;;13.98;76.90
26657;BME280;14279;50.010;8.260;2023-02-17T13:06:36;101036.13;;;13.86;77.37
26657;BME280;14279;50.010;8.260;2023-02-17T13:09:16;101037.06;;;14.02;77.15
26657;BME280;14279;50.010;8.260;2023-02-17T13:11:46;101029.59;;;13.94;77.44
26657;BME280;14279;50.010;8.260;2023-02-17T13:16:46;101024.59;;;14.25;76.54
26657;BME280;14279;50.010;8.260;2023-02-17T13:19:13;101030.06;;;14.20;76.53
26657;BME280;14279;50.010;8.260;2023-02-17T13:21:51;101016.41;;;14.13;76.64
26657;BME280;14279;50.010;8.260;2023-02-17T13:24:38;101015.41;;;14.34;76.21
26657;BME280;14279;50.010;8.260;2023-02-17T13:30:26;101023.19;;;14.35;75.98
26657;BME280;14279;50.010;8.260;2023-02-17T13:35:44;101008.00;;;14.42;75.79
26657;BME280;14279;50.010;8.260;2023-02-17T13:38:10;101013.84;;;14.81;74.31
26657;BME280;14279;50.010;8.260;2023-02-17T13:40:37;101006.19;;;14.78;74.35
26657;BME280;14279;50.010;8.260;2023-02-17T13:43:14;100996.28;;;14.99;72.85
26657;BME280;14279;50.010;8.260;2023-02-17T13:46:02;101012.72;;;14.69;73.89
26657;BME280;14279;50.010;8.260;2023-02-17T13:48:38;101005.81;;;14.50;74.36
26657;BME280;14279;50.010;8.260;2023-02-17T13:51:32;101007.53;;;14.85;73.07
26657;BME280;14279;50.010;8.260;2023-02-17T13:54:08;101012.53;;;15.06;72.12
26657;BME280;14279;50.010;8.260;2023-02-17T13:56:33;100997.50;;;15.09;72.07
26657;BME280;14279;50.010;8.260;2023-02-17T13:59:25;101010.72;;;14.74;72.83
26657;BME280;14279;50.010;8.260;2023-02-17T14:01:52;101015.22;;;14.54;74.01
26657;BME280;14279;50.010;8.260;2023-02-17T14:04:27;101007.63;;;14.83;72.89
26657;BME280;14279;50.010;8.260;2023-02-17T14:06:56;101012.56;;;14.72;73.08
26657;BME280;14279;50.010;8.260;2023-02-17T14:09:28;101009.22;;;14.86;72.57
26657;BME280;14279;50.010;8.260;2023-02-17T14:11:55;101000.00;;;14.79;72.79
26657;BME280;14279;50.010;8.260;2023-02-17T14:14:23;100997.63;;;14.90;72.76